createdAt,value
2022-11-05T00:00:14.584Z,0.9
2022-11-05T00:01:04.437Z,1.1
2022-11-05T00:02:04.312Z,1.0
2022-11-05T00:03:04.263Z,1.3
2022-11-05T00:04:05.978Z,1.2
2022-11-05T00:05:04.751Z,1.0
2022-11-05T00:06:04.558Z,0.7
2022-11-05T00:07:11.626Z,1.0
2022-11-05T00:08:04.308Z,1.5
2022-11-05T00:09:07.069Z,1.0
2022-11-05T00:10:06.500Z,1.2
2022-11-05T00:11:04.570Z,1.0
2022-11-05T00:12:06.735Z,1.3
2022-11-05T00:13:05.231Z,1.1
2022-11-05T00:14:04.736Z,0.8
2022-11-05T00:15:04.794Z,1.3
2022-11-05T00:16:04.395Z,1.0
2022-11-05T00:17:04.103Z,0.8
2022-11-05T00:18:03.975Z,1.0
2022-11-05T00:19:04.789Z,0.9
2022-11-05T00:20:05.424Z,0.8
2022-11-05T00:21:04.807Z,1.3
2022-11-05T00:22:04.166Z,0.9
2022-11-05T00:23:05.095Z,1.1
2022-11-05T00:24:04.841Z,0.9
2022-11-05T00:25:04.579Z,1.0
2022-11-05T00:26:08.992Z,1.1
2022-11-05T00:27:04.155Z,1.1
2022-11-05T00:28:03.910Z,0.9
2022-11-05T00:29:04.629Z,0.6
2022-11-05T00:30:04.926Z,0.7
2022-11-05T00:31:05.349Z,0.8
2022-11-05T00:32:04.111Z,1.4
2022-11-05T00:33:03.846Z,1.2
2022-11-05T00:34:04.571Z,1.5
2022-11-05T00:35:05.576Z,0.9
2022-11-05T00:36:05.215Z,0.9
2022-11-05T00:37:04.017Z,1.0
2022-11-05T00:38:04.697Z,0.6
2022-11-05T00:39:04.782Z,1.0
2022-11-05T00:40:05.192Z,0.9
2022-11-05T00:41:04.428Z,1.0
2022-11-05T00:42:04.044Z,1.1
2022-11-05T00:43:04.679Z,1.1
2022-11-05T00:44:04.576Z,1.0
2022-11-05T00:45:05.095Z,1.2
2022-11-05T00:46:04.215Z,1.8
2022-11-05T00:47:03.940Z,0.8
2022-11-05T00:48:04.833Z,0.7
2022-11-05T00:49:04.507Z,1.4
2022-11-05T00:50:04.644Z,1.0
2022-11-05T00:51:04.200Z,0.7
2022-11-05T00:52:03.918Z,0.7
2022-11-05T00:53:04.782Z,0.9
2022-11-05T00:54:04.384Z,0.5
2022-11-05T00:55:04.291Z,0.6
2022-11-05T00:56:04.094Z,1.2
2022-11-05T00:57:04.994Z,0.7
2022-11-05T00:58:09.409Z,0.7
2022-11-05T00:59:04.340Z,0.7
2022-11-05T01:00:04.497Z,1.2
2022-11-05T01:01:04.108Z,1.4
2022-11-05T01:02:04.892Z,0.8
2022-11-05T01:03:09.419Z,1.1
2022-11-05T01:04:04.257Z,1.0
2022-11-05T01:05:04.288Z,0.9
2022-11-05T01:06:14.076Z,1.0
2022-11-05T01:07:04.593Z,1.4
2022-11-05T01:08:04.461Z,0.6
2022-11-05T01:09:04.215Z,1.0
2022-11-05T01:10:04.454Z,0.6
2022-11-05T01:11:12.251Z,1.2
2022-11-05T01:12:04.735Z,1.1
2022-11-05T01:13:07.599Z,0.8
2022-11-05T01:14:06.008Z,0.8
2022-11-05T01:15:04.395Z,0.6
2022-11-05T01:16:08.368Z,1.0
2022-11-05T01:17:04.505Z,1.0
2022-11-05T01:18:04.473Z,0.6
2022-11-05T01:19:04.979Z,1.1
2022-11-05T01:20:04.407Z,1.4
2022-11-05T01:21:13.695Z,1.0
2022-11-05T01:22:04.485Z,0.9
2022-11-05T01:23:07.594Z,0.9
2022-11-05T01:24:04.317Z,1.2
2022-11-05T01:25:04.194Z,1.0
2022-11-05T01:26:04.731Z,0.9
2022-11-05T01:27:03.891Z,1.3
2022-11-05T01:28:04.726Z,0.9
2022-11-05T01:29:04.792Z,1.1
2022-11-05T01:30:05.832Z,1.3
2022-11-05T01:31:04.150Z,0.9
2022-11-05T01:32:04.157Z,1.1
2022-11-05T01:33:04.623Z,0.8
2022-11-05T01:34:04.429Z,1.0
2022-11-05T01:35:05.126Z,0.8
2022-11-05T01:36:04.279Z,0.8
2022-11-05T01:37:04.755Z,0.8
2022-11-05T01:38:04.508Z,0.6
2022-11-05T01:39:04.357Z,0.9
2022-11-05T01:40:04.594Z,1.2
2022-11-05T01:41:04.046Z,0.8
2022-11-05T01:42:09.545Z,0.3
2022-11-05T01:43:08.719Z,0.5
2022-11-05T01:44:04.314Z,0.8
2022-11-05T01:45:11.885Z,0.4
2022-11-05T01:46:04.846Z,0.7
2022-11-05T01:47:04.689Z,0.9
2022-11-05T01:48:13.840Z,0.8
2022-11-05T01:49:14.209Z,0.7
2022-11-05T01:50:26.762Z,1.2
2022-11-05T01:51:09.552Z,0.5
2022-11-05T01:52:04.537Z,1.1
2022-11-05T01:53:19.337Z,1.1
2022-11-05T01:54:05.802Z,1.1
2022-11-05T01:55:04.561Z,0.2
2022-11-05T01:56:15.252Z,0.3
2022-11-05T01:57:06.350Z,0.5
2022-11-05T01:58:05.399Z,0.8
2022-11-05T01:59:05.885Z,0.8
2022-11-05T02:00:04.273Z,0.8
2022-11-05T02:01:04.862Z,0.9
2022-11-05T02:02:05.575Z,1.1
2022-11-05T02:03:04.321Z,0.5
2022-11-05T02:04:07.235Z,1.0
2022-11-05T02:05:05.667Z,0.8
2022-11-05T02:06:04.822Z,1.4
2022-11-05T02:07:05.393Z,0.8
2022-11-05T02:08:04.408Z,0.9
2022-11-05T02:09:11.715Z,1.1
2022-11-05T02:10:08.518Z,0.7
2022-11-05T02:11:04.546Z,0.4
2022-11-05T02:12:05.854Z,0.9
2022-11-05T02:13:04.163Z,0.5
2022-11-05T02:14:04.121Z,0.9
2022-11-05T02:15:05.509Z,0.3
2022-11-05T02:16:15.320Z,0.8
2022-11-05T02:17:11.740Z,0.2
2022-11-05T02:18:14.651Z,0.7
2022-11-05T02:19:08.757Z,0.5
2022-11-05T02:20:10.750Z,0.9
2022-11-05T02:21:09.430Z,0.8
2022-11-05T02:22:22.175Z,1.3
2022-11-05T02:23:12.162Z,0.5
2022-11-05T02:24:09.570Z,0.5
2022-11-05T02:25:09.426Z,0.8
2022-11-05T02:26:09.708Z,0.2
2022-11-05T02:27:12.219Z,0.8
2022-11-05T02:28:18.223Z,0.8
2022-11-05T02:29:17.739Z,0.9
2022-11-05T02:30:08.959Z,1.2
2022-11-05T02:31:21.264Z,0.5
2022-11-05T02:32:21.242Z,0.7
2022-11-05T02:33:22.206Z,1.2
2022-11-05T02:34:20.723Z,0.7
2022-11-05T02:35:17.741Z,1.0
2022-11-05T02:36:20.524Z,0.8
2022-11-05T02:37:13.581Z,1.1
2022-11-05T02:38:08.798Z,0.5
2022-11-05T02:39:17.715Z,1.0
2022-11-05T02:40:17.715Z,1.3
2022-11-05T02:41:07.670Z,1.0
2022-11-05T02:42:18.240Z,1.1
2022-11-05T02:43:09.646Z,0.8
2022-11-05T02:44:11.759Z,0.4
2022-11-05T02:45:20.742Z,0.7
2022-11-05T02:46:15.281Z,0.7
2022-11-05T02:47:07.277Z,0.8
2022-11-05T02:48:09.114Z,0.5
2022-11-05T02:49:08.980Z,0.9
2022-11-05T02:50:08.776Z,0.9
2022-11-05T02:51:07.992Z,0.7
2022-11-05T02:52:07.935Z,0.8
2022-11-05T02:53:20.749Z,0.5
2022-11-05T02:54:08.925Z,0.5
2022-11-05T02:55:17.743Z,1.1
2022-11-05T02:56:08.349Z,1.1
2022-11-05T02:57:04.749Z,0.2
2022-11-05T02:58:04.983Z,0.9
2022-11-05T02:59:04.032Z,1.0
2022-11-05T03:00:06.417Z,0.6
2022-11-05T03:01:04.499Z,1.1
2022-11-05T03:02:04.774Z,0.8
2022-11-05T03:03:05.267Z,0.6
2022-11-05T03:04:05.703Z,0.7
2022-11-05T03:05:04.997Z,1.2
2022-11-05T03:06:12.285Z,0.6
2022-11-05T03:07:11.749Z,0.6
2022-11-05T03:08:09.091Z,0.8
2022-11-05T03:09:17.747Z,1.1
2022-11-05T03:10:12.238Z,0.4
2022-11-05T03:11:09.318Z,0.6
2022-11-05T03:12:23.727Z,0.8
2022-11-05T03:13:14.431Z,0.7
2022-11-05T03:14:11.741Z,0.8
2022-11-05T03:15:12.291Z,0.5
2022-11-05T03:16:09.360Z,0.9
2022-11-05T03:17:10.392Z,0.6
2022-11-05T03:18:12.573Z,0.4
2022-11-05T03:19:08.811Z,0.4
2022-11-05T03:20:12.289Z,0.3
2022-11-05T03:21:08.422Z,0.9
2022-11-05T03:22:07.372Z,0.6
2022-11-05T03:23:22.185Z,0.7
2022-11-05T03:24:09.881Z,0.8
2022-11-05T03:25:07.343Z,0.8
2022-11-05T03:26:12.192Z,1.0
2022-11-05T03:27:07.455Z,1.2
2022-11-05T03:28:05.656Z,0.8
2022-11-05T03:29:07.529Z,1.1
2022-11-05T03:30:06.033Z,0.6
2022-11-05T03:31:05.558Z,1.1
2022-11-05T03:32:04.829Z,0.8
2022-11-05T03:33:09.238Z,1.2
2022-11-05T03:34:05.967Z,1.1
2022-11-05T03:35:07.417Z,0.8
2022-11-05T03:36:09.391Z,0.5
2022-11-05T03:37:05.143Z,0.7
2022-11-05T03:38:07.140Z,0.7
2022-11-05T03:39:05.486Z,0.5
2022-11-05T03:40:06.279Z,0.7
2022-11-05T03:41:05.955Z,0.6
2022-11-05T03:42:05.224Z,1.1
2022-11-05T03:43:05.873Z,0.4
2022-11-05T03:44:05.876Z,0.5
2022-11-05T03:45:07.622Z,0.3
2022-11-05T03:46:06.955Z,0.7
2022-11-05T03:47:05.359Z,0.7
2022-11-05T03:48:06.239Z,0.8
2022-11-05T03:49:07.159Z,0.6
2022-11-05T03:50:09.341Z,0.9
2022-11-05T03:51:20.733Z,0.8
2022-11-05T03:52:12.078Z,0.6
2022-11-05T03:53:09.698Z,0.2
2022-11-05T03:54:04.671Z,0.7
2022-11-05T03:55:04.691Z,0.7
2022-11-05T03:56:26.746Z,0.8
2022-11-05T03:57:09.758Z,0.3
2022-11-05T03:58:05.019Z,0.6
2022-11-05T03:59:05.487Z,0.5
2022-11-05T04:00:08.370Z,0.7
2022-11-05T04:01:04.175Z,1.0
2022-11-05T04:02:04.777Z,0.7
2022-11-05T04:03:04.625Z,0.8
2022-11-05T04:04:05.204Z,0.4
2022-11-05T04:05:04.405Z,0.7
2022-11-05T04:06:04.609Z,1.0
2022-11-05T04:07:04.826Z,0.7
2022-11-05T04:08:06.024Z,0.7
2022-11-05T04:09:04.236Z,0.9
2022-11-05T04:10:04.403Z,1.0
2022-11-05T04:11:04.880Z,0.8
2022-11-05T04:12:04.988Z,0.8
2022-11-05T04:13:04.510Z,0.6
2022-11-05T04:14:04.250Z,0.9
2022-11-05T04:15:04.307Z,0.9
2022-11-05T04:16:04.750Z,0.5
2022-11-05T04:17:04.659Z,0.7
2022-11-05T04:18:04.318Z,0.8
2022-11-05T04:19:04.122Z,0.5
2022-11-05T04:20:04.265Z,0.3
2022-11-05T04:21:04.823Z,0.1
2022-11-05T04:22:04.523Z,0.4
2022-11-05T04:23:05.410Z,0.7
2022-11-05T04:24:04.421Z,0.7
2022-11-05T04:25:03.995Z,1.0
2022-11-05T04:26:04.596Z,0.2
2022-11-05T04:27:04.424Z,0.7
2022-11-05T04:28:04.364Z,0.9
2022-11-05T04:29:07.872Z,0.6
2022-11-05T04:30:05.558Z,0.6
2022-11-05T04:31:04.609Z,0.4
2022-11-05T04:32:04.572Z,0.9
2022-11-05T04:33:08.739Z,0.3
2022-11-05T04:34:04.025Z,1.0
2022-11-05T04:35:04.879Z,0.4
2022-11-05T04:36:04.679Z,0.5
2022-11-05T04:37:04.283Z,0.8
2022-11-05T04:38:05.188Z,0.4
2022-11-05T04:39:03.986Z,0.3
2022-11-05T04:40:05.110Z,0.5
2022-11-05T04:41:14.572Z,0.8
2022-11-05T04:42:04.525Z,0.4
2022-11-05T04:43:04.505Z,0.8
2022-11-05T04:44:03.973Z,0.7
2022-11-05T04:45:04.862Z,0.3
2022-11-05T04:46:04.521Z,0.7
2022-11-05T04:47:04.227Z,0.5
2022-11-05T04:48:04.412Z,0.8
2022-11-05T04:49:04.873Z,0.2
2022-11-05T04:50:04.832Z,0.8
2022-11-05T04:51:04.492Z,0.7
2022-11-05T04:52:04.259Z,1.0
2022-11-05T04:53:04.078Z,0.6
2022-11-05T04:54:04.759Z,0.8
2022-11-05T04:55:04.793Z,0.5
2022-11-05T04:56:14.738Z,0.3
2022-11-05T04:57:04.097Z,0.3
2022-11-05T04:58:03.962Z,0.7
2022-11-05T04:59:04.715Z,0.6
2022-11-05T05:00:05.144Z,0.7
2022-11-05T05:01:04.302Z,1.0
2022-11-05T05:02:04.227Z,0.7
2022-11-05T05:03:03.907Z,0.4
2022-11-05T05:04:04.591Z,0.7
2022-11-05T05:05:04.635Z,0.9
2022-11-05T05:06:04.356Z,0.9
2022-11-05T05:07:03.980Z,0.8
2022-11-05T05:08:04.800Z,0.5
2022-11-05T05:09:04.565Z,0.6
2022-11-05T05:10:05.305Z,1.0
2022-11-05T05:11:05.058Z,0.6
2022-11-05T05:12:04.169Z,0.4
2022-11-05T05:13:04.777Z,0.3
2022-11-05T05:14:04.451Z,0.3
2022-11-05T05:15:04.664Z,0.3
2022-11-05T05:16:07.528Z,0.8
2022-11-05T05:17:03.910Z,0.5
2022-11-05T05:18:04.686Z,0.5
2022-11-05T05:19:04.451Z,0.6
2022-11-05T05:20:04.508Z,0.5
2022-11-05T05:21:04.176Z,0.6
2022-11-05T05:22:03.934Z,0.8
2022-11-05T05:23:04.571Z,0.8
2022-11-05T05:24:05.010Z,0.5
2022-11-05T05:25:04.462Z,0.5
2022-11-05T05:26:04.088Z,0.7
2022-11-05T05:27:04.794Z,0.8
2022-11-05T05:28:04.565Z,0.4
2022-11-05T05:29:04.654Z,0.4
2022-11-05T05:30:04.796Z,0.8
2022-11-05T05:31:04.022Z,0.6
2022-11-05T05:32:05.211Z,0.3
2022-11-05T05:33:04.498Z,0.2
2022-11-05T05:34:04.788Z,0.2
2022-11-05T05:35:04.424Z,0.6
2022-11-05T05:36:10.011Z,0.3
2022-11-05T05:37:04.651Z,0.2
2022-11-05T05:38:04.502Z,0.8
2022-11-05T05:39:05.121Z,0.6
2022-11-05T05:40:04.341Z,0.4
2022-11-05T05:41:04.052Z,0.2
2022-11-05T05:42:04.682Z,0.3
2022-11-05T05:43:04.383Z,0.7
2022-11-05T05:44:05.049Z,0.2
2022-11-05T05:45:04.377Z,0.4
2022-11-05T05:46:06.144Z,0.6
2022-11-05T05:47:04.864Z,0.6
2022-11-05T05:48:04.639Z,0.5
2022-11-05T05:49:07.971Z,0.5
2022-11-05T05:50:04.299Z,0.5
2022-11-05T05:51:08.548Z,0.3
2022-11-05T05:52:04.937Z,0.7
2022-11-05T05:53:04.307Z,0.4
2022-11-05T05:54:04.220Z,0.8
2022-11-05T05:55:04.210Z,0.2
2022-11-05T05:56:04.858Z,0.3
2022-11-05T05:57:04.541Z,0.7
2022-11-05T05:58:04.361Z,0.7
2022-11-05T05:59:04.443Z,0.4
2022-11-05T06:00:04.863Z,0.9
2022-11-05T06:01:12.953Z,0.3
2022-11-05T06:02:04.665Z,0.7
2022-11-05T06:03:04.245Z,0.9
2022-11-05T06:04:04.122Z,0.4
2022-11-05T06:05:04.847Z,0.9
2022-11-05T06:06:08.383Z,0.2
2022-11-05T06:07:04.408Z,0.5
2022-11-05T06:08:04.461Z,0.7
2022-11-05T06:09:03.982Z,0.5
2022-11-05T06:10:04.988Z,0.1
2022-11-05T06:11:04.632Z,0.6
2022-11-05T06:12:04.733Z,0.5
2022-11-05T06:13:04.079Z,0.2
2022-11-05T06:14:03.884Z,0.4
2022-11-05T06:15:04.980Z,0.4
2022-11-05T06:16:05.887Z,0.2
2022-11-05T06:17:05.614Z,0.6
2022-11-05T06:18:04.084Z,0.7
2022-11-05T06:19:04.434Z,0.4
2022-11-05T06:20:05.004Z,0.4
2022-11-05T06:21:05.497Z,0.5
2022-11-05T06:22:04.160Z,0.6
2022-11-05T06:23:04.133Z,0.2
2022-11-05T06:24:04.983Z,0.3
2022-11-05T06:25:05.078Z,0.2
2022-11-05T06:26:05.597Z,0.2
2022-11-05T06:27:04.113Z,0.2
2022-11-05T06:28:03.986Z,0.3
2022-11-05T06:29:04.729Z,0.7
2022-11-05T06:30:04.771Z,0.5
2022-11-05T06:31:04.491Z,0.2
2022-11-05T06:32:04.102Z,0.7
2022-11-05T06:33:04.382Z,0.3
2022-11-05T06:34:04.606Z,0.3
2022-11-05T06:35:04.747Z,0.7
2022-11-05T06:36:04.896Z,0.3
2022-11-05T06:37:03.997Z,0.2
2022-11-05T06:38:04.696Z,0.5
2022-11-05T06:39:04.762Z,0.7
2022-11-05T06:40:04.783Z,0.2
2022-11-05T06:41:09.893Z,0.6
2022-11-05T06:42:17.976Z,0.3
2022-11-05T06:43:04.762Z,0.2
2022-11-05T06:44:04.414Z,0.3
2022-11-05T06:45:04.677Z,0.4
2022-11-05T06:46:04.378Z,0.4
2022-11-05T06:47:03.882Z,0.5
2022-11-05T06:48:04.961Z,0.3
2022-11-05T06:49:04.342Z,0.3
2022-11-05T06:50:04.441Z,0.3
2022-11-05T06:51:04.181Z,0.4
2022-11-05T06:52:04.698Z,0.8
2022-11-05T06:53:04.561Z,0.4
2022-11-05T06:54:04.374Z,0.4
2022-11-05T06:55:04.398Z,0.4
2022-11-05T06:56:04.641Z,0.1
2022-11-05T06:57:04.603Z,0.7
2022-11-05T06:58:04.802Z,0.5
2022-11-05T06:59:04.176Z,0.5
2022-11-05T07:00:07.617Z,0.5
2022-11-05T07:01:06.140Z,0.2
2022-11-05T07:02:04.765Z,0.3
2022-11-05T07:03:05.092Z,0.5
2022-11-05T07:04:04.148Z,0.4
2022-11-05T07:05:04.164Z,0.1
2022-11-05T07:06:05.991Z,0.4
2022-11-05T07:07:04.423Z,0.4
2022-11-05T07:08:04.387Z,0.7
2022-11-05T07:09:04.092Z,0.2
2022-11-05T07:10:06.157Z,0.4
2022-11-05T07:11:05.101Z,0.2
2022-11-05T07:12:04.730Z,0.6
2022-11-05T07:13:08.181Z,0.5
2022-11-05T07:14:04.042Z,0.5
2022-11-05T07:15:05.188Z,0.8
2022-11-05T07:16:04.608Z,0.4
2022-11-05T07:17:04.279Z,0.6
2022-11-05T07:18:04.519Z,0.4
2022-11-05T07:19:03.878Z,0.5
2022-11-05T07:20:05.377Z,0.1
2022-11-05T07:21:04.565Z,0.5
2022-11-05T07:22:04.304Z,0.7
2022-11-05T07:23:05.262Z,0.5
2022-11-05T07:24:05.153Z,0.7
2022-11-05T07:25:05.207Z,0.5
2022-11-05T07:26:04.350Z,0.4
2022-11-05T07:27:04.089Z,0.3
2022-11-05T07:28:03.953Z,0.5
2022-11-05T07:29:04.660Z,0.3
2022-11-05T07:30:06.429Z,0.5
2022-11-05T07:31:04.437Z,0.3
2022-11-05T07:32:04.500Z,0.3
2022-11-05T07:33:04.028Z,0.2
2022-11-05T07:34:04.528Z,0.2
2022-11-05T07:35:04.750Z,0.5
2022-11-05T07:36:04.479Z,0.3
2022-11-05T07:37:04.009Z,0.6
2022-11-05T07:38:04.747Z,0.2
2022-11-05T07:39:04.537Z,0.5
2022-11-05T07:40:04.829Z,0.5
2022-11-05T07:41:04.271Z,0.6
2022-11-05T07:42:03.993Z,0.0
2022-11-05T07:43:04.645Z,0.4
2022-11-05T07:44:04.476Z,0.5
2022-11-05T07:45:04.636Z,0.9
2022-11-05T07:46:04.065Z,0.4
2022-11-05T07:47:04.744Z,0.5
2022-11-05T07:48:04.742Z,0.2
2022-11-05T07:49:04.511Z,1.2
2022-11-05T07:50:04.745Z,0.8
2022-11-05T07:51:04.115Z,0.4
2022-11-05T07:52:04.629Z,0.5
2022-11-05T07:53:09.756Z,0.2
2022-11-05T07:54:04.241Z,0.3
2022-11-05T07:55:04.561Z,0.5
2022-11-05T07:56:04.979Z,0.6
2022-11-05T07:57:04.580Z,0.5
2022-11-05T07:58:04.404Z,0.1
2022-11-05T07:59:04.209Z,0.5
2022-11-05T08:00:04.387Z,0.8
2022-11-05T08:01:05.124Z,0.6
2022-11-05T08:02:05.078Z,0.2
2022-11-05T08:03:09.620Z,0.3
2022-11-05T08:04:04.112Z,0.4
2022-11-05T08:05:04.132Z,0.4
2022-11-05T08:06:04.851Z,0.2
2022-11-05T08:07:04.420Z,0.6
2022-11-05T08:08:04.878Z,0.2
2022-11-05T08:09:04.100Z,0.3
2022-11-05T08:10:05.020Z,0.1
2022-11-05T08:11:05.513Z,0.0
2022-11-05T08:12:04.740Z,0.3
2022-11-05T08:13:05.033Z,0.2
2022-11-05T08:14:03.957Z,0.6
2022-11-05T08:15:05.227Z,0.1
2022-11-05T08:16:04.783Z,0.7
2022-11-05T08:17:04.430Z,0.3
2022-11-05T08:18:09.440Z,0.1
2022-11-05T08:19:03.893Z,0.0
2022-11-05T08:20:05.100Z,0.2
2022-11-05T08:21:04.544Z,0.4
2022-11-05T08:22:04.192Z,0.1
2022-11-05T08:23:04.503Z,0.9
2022-11-05T08:24:04.946Z,0.7
2022-11-05T08:25:06.952Z,0.5
2022-11-05T08:26:04.752Z,0.2
2022-11-05T08:27:04.166Z,0.1
2022-11-05T08:28:05.315Z,0.2
2022-11-05T08:29:04.623Z,0.3
2022-11-05T08:30:04.995Z,0.3
2022-11-05T08:31:04.412Z,0.2
2022-11-05T08:32:04.132Z,0.6
2022-11-05T08:33:06.015Z,0.5
2022-11-05T08:34:04.583Z,1.4
2022-11-05T08:35:04.736Z,0.2
2022-11-05T08:36:04.407Z,0.3
2022-11-05T08:37:04.023Z,0.8
2022-11-05T08:38:06.047Z,0.2
2022-11-05T08:39:04.810Z,0.4
2022-11-05T08:40:05.092Z,0.1
2022-11-05T08:41:08.695Z,0.1
2022-11-05T08:42:04.330Z,0.5
2022-11-05T08:43:05.490Z,0.7
2022-11-05T08:44:05.710Z,0.4
2022-11-05T08:45:05.565Z,0.1
2022-11-05T08:46:04.172Z,0.3
2022-11-05T08:47:03.943Z,0.3
2022-11-05T08:48:07.366Z,0.5
2022-11-05T08:49:04.434Z,0.3
2022-11-05T08:50:04.411Z,0.1
2022-11-05T08:51:04.042Z,0.1
2022-11-05T08:52:04.712Z,0.2
2022-11-05T08:53:05.328Z,0.5
2022-11-05T08:54:04.792Z,0.2
2022-11-05T08:55:04.482Z,0.2
2022-11-05T08:56:04.106Z,0.5
2022-11-05T08:57:04.680Z,0.5
2022-11-05T08:58:05.527Z,0.2
2022-11-05T08:59:04.269Z,0.3
2022-11-05T09:00:04.429Z,0.5
2022-11-05T09:01:05.429Z,0.3
2022-11-05T09:02:04.675Z,0.5
2022-11-05T09:03:05.497Z,1.0
2022-11-05T09:04:04.180Z,0.5
2022-11-05T09:05:04.463Z,1.0
2022-11-05T09:06:04.806Z,0.8
2022-11-05T09:07:04.446Z,0.5
2022-11-05T09:08:04.945Z,0.8
2022-11-05T09:09:04.090Z,0.3
2022-11-05T09:10:05.206Z,0.5
2022-11-05T09:11:04.778Z,0.8
2022-11-05T09:12:12.612Z,0.6
2022-11-05T09:13:04.202Z,0.2
2022-11-05T09:14:04.037Z,0.8
2022-11-05T09:15:04.922Z,0.7
2022-11-05T09:16:04.672Z,0.6
2022-11-05T09:17:09.193Z,0.1
2022-11-05T09:18:04.268Z,0.4
2022-11-05T09:19:03.912Z,0.6
2022-11-05T09:20:05.250Z,0.7
2022-11-05T09:21:04.475Z,0.5
2022-11-05T09:22:04.256Z,0.6
2022-11-05T09:23:04.041Z,0.4
2022-11-05T09:24:04.915Z,0.4
2022-11-05T09:25:04.940Z,0.6
2022-11-05T09:26:04.553Z,0.4
2022-11-05T09:27:04.361Z,0.2
2022-11-05T09:28:05.345Z,0.3
2022-11-05T09:29:04.632Z,0.1
2022-11-05T09:30:04.787Z,0.2
2022-11-05T09:31:05.859Z,0.4
2022-11-05T09:32:04.358Z,0.2
2022-11-05T09:33:03.869Z,0.7
2022-11-05T09:34:04.549Z,0.6
2022-11-05T09:35:05.229Z,0.6
2022-11-05T09:36:04.463Z,0.7
2022-11-05T09:37:04.045Z,0.3
2022-11-05T09:38:04.978Z,0.1
2022-11-05T09:39:04.526Z,0.2
2022-11-05T09:40:04.820Z,0.4
2022-11-05T09:41:06.286Z,0.2
2022-11-05T09:42:06.634Z,1.0
2022-11-05T09:43:05.656Z,0.2
2022-11-05T09:44:09.231Z,0.2
2022-11-05T09:45:06.560Z,0.4
2022-11-05T09:46:07.044Z,0.3
2022-11-05T09:47:06.554Z,0.3
2022-11-05T09:48:09.044Z,0.4
2022-11-05T09:49:06.477Z,0.3
2022-11-05T09:50:08.170Z,0.3
2022-11-05T09:51:04.184Z,0.0
2022-11-05T09:52:05.945Z,0.1
2022-11-05T09:53:04.379Z,0.2
2022-11-05T09:54:04.281Z,0.5
2022-11-05T09:55:09.016Z,0.2
2022-11-05T09:56:05.081Z,0.5
2022-11-05T09:57:06.949Z,0.2
2022-11-05T09:58:17.789Z,0.3
2022-11-05T09:59:07.369Z,0.2
2022-11-05T10:00:05.400Z,0.1
2022-11-05T10:01:09.344Z,0.2
2022-11-05T10:02:21.394Z,0.1
2022-11-05T10:03:06.602Z,0.1
2022-11-05T10:04:08.966Z,0.2
2022-11-05T10:05:10.043Z,0.2
2022-11-05T10:06:07.092Z,0.0
2022-11-05T10:07:06.203Z,0.2
2022-11-05T10:08:06.319Z,0.2
2022-11-05T10:09:11.774Z,0.0
2022-11-05T10:10:06.026Z,0.0
2022-11-05T10:11:06.340Z,0.2
2022-11-05T10:12:06.610Z,0.2
2022-11-05T10:13:09.379Z,0.3
2022-11-05T10:14:12.287Z,0.4
2022-11-05T10:15:22.712Z,0.6
2022-11-05T10:16:09.425Z,0.2
2022-11-05T10:17:13.326Z,0.0
2022-11-05T10:18:08.938Z,0.4
2022-11-05T10:19:18.313Z,0.1
2022-11-05T10:20:23.129Z,0.2
2022-11-05T10:21:04.775Z,0.0
2022-11-05T10:22:14.189Z,0.2
2022-11-05T10:23:08.971Z,0.4
2022-11-05T10:24:15.342Z,0.2
2022-11-05T10:25:09.347Z,0.0
2022-11-05T10:26:10.944Z,0.2
2022-11-05T10:27:04.425Z,0.2
2022-11-05T10:28:05.225Z,0.3
2022-11-05T10:29:04.792Z,0.4
2022-11-05T10:30:04.794Z,0.2
2022-11-05T10:31:05.833Z,0.2
2022-11-05T10:32:04.632Z,0.1
2022-11-05T10:33:05.702Z,0.2
2022-11-05T10:34:06.699Z,0.1
2022-11-05T10:35:05.535Z,0.2
2022-11-05T10:36:05.899Z,0.2
2022-11-05T10:37:04.194Z,0.0
2022-11-05T10:38:04.607Z,0.3
2022-11-05T10:39:14.318Z,0.0
2022-11-05T10:40:23.800Z,0.1
2022-11-05T10:41:14.787Z,0.0
2022-11-05T10:42:12.277Z,0.0
2022-11-05T10:43:09.819Z,0.3
2022-11-05T10:44:09.272Z,0.1
2022-11-05T10:45:22.228Z,0.0
2022-11-05T10:46:08.883Z,0.0
2022-11-05T10:47:12.348Z,0.2
2022-11-05T10:48:09.382Z,0.2
2022-11-05T10:49:11.790Z,0.1
2022-11-05T10:50:14.830Z,0.5
2022-11-05T10:51:05.680Z,0.1
2022-11-05T10:52:16.304Z,0.2
2022-11-05T10:53:12.247Z,0.1
2022-11-05T10:54:09.154Z,0.2
2022-11-05T10:55:09.000Z,0.2
2022-11-05T10:56:09.643Z,0.5
2022-11-05T10:57:09.405Z,0.1
2022-11-05T10:58:17.832Z,0.3
2022-11-05T10:59:10.955Z,0.6
2022-11-05T11:00:17.842Z,0.5
2022-11-05T11:01:09.593Z,0.3
2022-11-05T11:02:12.347Z,0.3
2022-11-05T11:03:09.522Z,0.4
2022-11-05T11:04:19.799Z,0.4
2022-11-05T11:05:04.067Z,0.4
2022-11-05T11:06:09.456Z,0.2
2022-11-05T11:07:04.442Z,0.4
2022-11-05T11:08:14.828Z,0.5
2022-11-05T11:09:11.810Z,0.3
2022-11-05T11:10:04.979Z,0.0
2022-11-05T11:11:06.802Z,0.4
2022-11-05T11:12:06.190Z,0.6
2022-11-05T11:13:04.373Z,0.7
2022-11-05T11:14:17.796Z,0.2
2022-11-05T11:15:09.663Z,0.4
2022-11-05T11:16:09.335Z,0.3
2022-11-05T11:17:20.815Z,0.1
2022-11-05T11:18:08.942Z,0.2
2022-11-05T11:19:09.655Z,0.1
2022-11-05T11:20:21.333Z,0.2
2022-11-05T11:21:05.999Z,0.5
2022-11-05T11:22:09.207Z,0.6
2022-11-05T11:23:11.624Z,0.1
2022-11-05T11:24:05.005Z,0.1
2022-11-05T11:25:18.322Z,0.5
2022-11-05T11:26:04.691Z,0.4
2022-11-05T11:27:05.354Z,0.2
2022-11-05T11:28:04.774Z,0.3
2022-11-05T11:29:12.328Z,0.2
2022-11-05T11:30:05.245Z,0.0
2022-11-05T11:31:08.607Z,0.2
2022-11-05T11:32:08.789Z,0.3
2022-11-05T11:33:06.032Z,0.5
2022-11-05T11:34:09.481Z,0.2
2022-11-05T11:35:05.810Z,0.2
2022-11-05T11:36:04.446Z,0.1
2022-11-05T11:37:05.981Z,0.0
2022-11-05T11:38:05.812Z,0.2
2022-11-05T11:39:05.694Z,0.2
2022-11-05T11:40:18.504Z,0.2
2022-11-05T11:41:09.104Z,0.3
2022-11-05T11:42:20.828Z,0.1
2022-11-05T11:43:06.051Z,0.3
2022-11-05T11:44:20.922Z,0.3
2022-11-05T11:45:11.916Z,0.2
2022-11-05T11:46:14.019Z,0.0
2022-11-05T11:47:09.330Z,0.0
2022-11-05T11:48:05.426Z,0.2
2022-11-05T11:49:05.661Z,0.1
2022-11-05T11:50:04.385Z,0.1
2022-11-05T11:51:22.258Z,0.1
2022-11-05T11:52:09.596Z,0.0
2022-11-05T11:53:24.337Z,0.1
2022-11-05T11:54:04.394Z,0.2
2022-11-05T11:55:11.816Z,0.6
2022-11-05T11:56:17.715Z,0.3
2022-11-05T11:57:24.138Z,0.2
2022-11-05T11:58:05.433Z,0.2
2022-11-05T11:59:09.153Z,0.3
2022-11-05T12:00:09.532Z,0.3
2022-11-05T12:01:21.846Z,0.4
2022-11-05T12:02:21.470Z,0.0
2022-11-05T12:03:09.340Z,0.0
2022-11-05T12:04:23.920Z,0.1
2022-11-05T12:05:20.841Z,0.0
2022-11-05T12:06:18.325Z,0.0
2022-11-05T12:07:09.510Z,0.0
2022-11-05T12:08:26.830Z,0.1
2022-11-05T12:09:11.824Z,0.5
2022-11-05T12:10:17.829Z,0.2
2022-11-05T12:11:12.323Z,0.0
2022-11-05T12:12:10.113Z,0.1
2022-11-05T12:13:17.815Z,0.2
2022-11-05T12:14:08.941Z,0.4
2022-11-05T12:15:08.809Z,0.6
2022-11-05T12:16:12.334Z,0.3
2022-11-05T12:17:10.793Z,0.2
2022-11-05T12:18:05.650Z,0.0
2022-11-05T12:19:17.835Z,0.8
2022-11-05T12:20:12.335Z,0.2
2022-11-05T12:21:09.417Z,0.2
2022-11-05T12:22:09.181Z,0.1
2022-11-05T12:23:17.827Z,0.2
2022-11-05T12:24:08.801Z,0.0
2022-11-05T12:25:15.263Z,0.5
2022-11-05T12:26:24.342Z,0.1
2022-11-05T12:27:09.202Z,0.0
2022-11-05T12:28:14.882Z,0.1
2022-11-05T12:29:19.266Z,0.1
2022-11-05T12:30:10.365Z,0.1
2022-11-05T12:31:09.254Z,0.1
2022-11-05T12:32:17.906Z,0.0
2022-11-05T12:33:12.359Z,0.3
2022-11-05T12:34:12.344Z,0.0
2022-11-05T12:35:22.787Z,0.1
2022-11-05T12:36:17.864Z,0.0
2022-11-05T12:37:09.076Z,0.2
2022-11-05T12:38:17.942Z,0.0
2022-11-05T12:39:12.346Z,0.2
2022-11-05T12:40:27.349Z,0.3
2022-11-05T12:41:09.236Z,0.3
2022-11-05T12:42:17.836Z,0.1
2022-11-05T12:43:11.720Z,0.1
2022-11-05T12:44:16.631Z,0.0
2022-11-05T12:45:09.353Z,0.1
2022-11-05T12:46:17.868Z,0.3
2022-11-05T12:47:11.849Z,0.1
2022-11-05T12:48:12.342Z,0.0
2022-11-05T12:49:09.470Z,0.4
2022-11-05T12:50:09.211Z,0.2
2022-11-05T12:51:11.854Z,0.2
2022-11-05T12:52:11.356Z,0.0
2022-11-05T12:53:12.677Z,0.0
2022-11-05T12:54:12.390Z,0.0
2022-11-05T12:55:16.608Z,0.2
2022-11-05T12:56:09.012Z,0.3
2022-11-05T12:57:04.788Z,0.0
2022-11-05T12:58:12.382Z,0.0
2022-11-05T12:59:14.917Z,0.0
2022-11-05T13:00:06.914Z,0.1
2022-11-05T13:01:07.494Z,0.0
2022-11-05T13:02:18.425Z,0.3
2022-11-05T13:03:12.653Z,0.0
2022-11-05T13:04:11.890Z,0.0
2022-11-05T13:05:19.022Z,0.0
2022-11-05T13:06:09.344Z,0.0
2022-11-05T13:07:07.271Z,0.0
2022-11-05T13:08:14.855Z,0.0
2022-11-05T13:09:11.853Z,0.0
2022-11-05T13:10:06.994Z,0.3
2022-11-05T13:11:08.803Z,0.4
2022-11-05T13:12:07.174Z,0.1
2022-11-05T13:13:09.653Z,0.2
2022-11-05T13:14:14.959Z,0.1
2022-11-05T13:15:11.909Z,0.0
2022-11-05T13:16:15.355Z,0.1
2022-11-05T13:17:09.030Z,0.1
2022-11-05T13:18:12.431Z,0.2
2022-11-05T13:19:16.330Z,0.0
2022-11-05T13:20:17.581Z,0.0
2022-11-05T13:21:05.553Z,0.2
2022-11-05T13:22:22.293Z,0.0
2022-11-05T13:23:17.849Z,0.0
2022-11-05T13:24:08.978Z,0.0
2022-11-05T13:25:08.822Z,0.0
2022-11-05T13:26:09.395Z,0.2
2022-11-05T13:27:14.871Z,0.4
2022-11-05T13:28:22.281Z,0.0
2022-11-05T13:29:08.923Z,0.3
2022-11-05T13:30:06.141Z,0.3
2022-11-05T13:31:08.683Z,0.0
2022-11-05T13:32:09.150Z,0.0
2022-11-05T13:33:09.306Z,0.2
2022-11-05T13:34:05.880Z,0.1
2022-11-05T13:35:05.697Z,0.0
2022-11-05T13:36:09.439Z,0.0
2022-11-05T13:37:06.011Z,0.0
2022-11-05T13:38:06.654Z,0.2
2022-11-05T13:39:18.390Z,0.0
2022-11-05T13:40:06.697Z,0.0
2022-11-05T13:41:14.936Z,0.2
2022-11-05T13:42:17.889Z,0.2
2022-11-05T13:43:09.049Z,0.1
2022-11-05T13:44:18.377Z,0.0
2022-11-05T13:45:09.332Z,0.0
2022-11-05T13:46:11.873Z,0.0